createdAt,value
2024-05-09T00:01:58.131Z,57.11
2024-05-09T00:05:00.658Z,57.10
2024-05-09T00:08:03.503Z,57.14
2024-05-09T00:11:06.028Z,57.14
2024-05-09T00:14:08.643Z,57.15
2024-05-09T00:17:11.236Z,57.15
2024-05-09T00:20:20.200Z,57.14
2024-05-09T00:23:26.835Z,57.15
2024-05-09T00:26:29.399Z,57.16
2024-05-09T00:29:32.342Z,57.18
2024-05-09T00:32:34.996Z,57.20
2024-05-09T00:35:37.731Z,57.20
2024-05-09T00:38:40.475Z,57.19
2024-05-09T00:41:42.918Z,57.21
2024-05-09T00:44:45.442Z,57.18
2024-05-09T00:47:48.145Z,57.18
2024-05-09T00:50:52.047Z,57.21
2024-05-09T00:53:55.243Z,57.20
2024-05-09T00:56:57.937Z,57.23
2024-05-09T01:00:00.559Z,57.22
2024-05-09T01:03:03.287Z,57.25
2024-05-09T01:06:05.928Z,57.23
2024-05-09T01:09:08.377Z,57.22
2024-05-09T01:12:10.983Z,57.19
2024-05-09T01:15:13.619Z,57.20
2024-05-09T01:18:16.611Z,57.18
2024-05-09T01:21:19.393Z,57.23
2024-05-09T01:24:22.063Z,57.22
2024-05-09T01:27:25.007Z,57.19
2024-05-09T01:30:33.989Z,57.20
2024-05-09T01:33:38.962Z,57.22
2024-05-09T01:36:41.513Z,57.19
2024-05-09T01:39:44.035Z,57.17
2024-05-09T01:42:46.531Z,57.17
2024-05-09T01:45:48.915Z,57.16
2024-05-09T01:48:51.574Z,57.18
2024-05-09T01:51:53.980Z,57.16
2024-05-09T01:54:56.338Z,57.15
2024-05-09T01:57:58.730Z,57.13
2024-05-09T02:01:01.439Z,57.13
2024-05-09T02:04:04.281Z,57.15
2024-05-09T02:07:06.804Z,57.16
2024-05-09T02:10:16.190Z,57.14
2024-05-09T02:13:22.670Z,57.11
2024-05-09T02:16:25.070Z,57.13
2024-05-09T02:19:27.705Z,57.12
2024-05-09T02:22:30.424Z,57.12
2024-05-09T02:25:33.319Z,57.11
2024-05-09T02:28:35.826Z,57.14
2024-05-09T02:31:38.178Z,57.07
2024-05-09T02:34:40.557Z,57.11
2024-05-09T02:37:43.014Z,57.09
2024-05-09T02:40:45.576Z,57.10
2024-05-09T02:43:48.057Z,57.13
2024-05-09T02:46:50.487Z,57.12
2024-05-09T02:49:52.884Z,57.08
2024-05-09T02:52:55.235Z,57.10
2024-05-09T02:55:57.555Z,57.09
2024-05-09T02:59:00.028Z,57.10
2024-05-09T03:02:02.603Z,57.10
2024-05-09T03:05:05.508Z,57.12
2024-05-09T03:08:08.423Z,57.06
2024-05-09T03:11:19.818Z,57.08
2024-05-09T03:14:22.795Z,57.09
2024-05-09T03:17:25.420Z,57.08
2024-05-09T03:20:33.410Z,57.11
2024-05-09T03:23:44.320Z,57.10
2024-05-09T03:26:47.082Z,57.10
2024-05-09T03:29:49.472Z,57.11
2024-05-09T03:32:51.990Z,57.10
2024-05-09T03:35:54.441Z,57.10
2024-05-09T03:38:56.783Z,57.06
2024-05-09T03:41:59.362Z,57.06
2024-05-09T03:45:01.807Z,57.11
2024-05-09T03:48:04.525Z,57.10
2024-05-09T03:51:07.695Z,57.11
2024-05-09T03:54:10.312Z,57.12
2024-05-09T03:57:12.679Z,57.10
2024-05-09T04:00:22.070Z,57.12
2024-05-09T04:03:29.099Z,57.13
2024-05-09T04:06:31.681Z,57.10
2024-05-09T04:09:34.090Z,57.10
2024-05-09T04:12:36.498Z,57.11
2024-05-09T04:15:39.442Z,57.08
2024-05-09T04:18:41.973Z,57.10
2024-05-09T04:21:44.413Z,57.13
2024-05-09T04:24:47.407Z,57.13
2024-05-09T04:27:49.800Z,57.13
2024-05-09T04:30:52.096Z,57.13
2024-05-09T04:33:54.575Z,57.18
2024-05-09T04:36:57.102Z,57.17
2024-05-09T04:39:59.661Z,57.12
2024-05-09T04:43:02.097Z,57.12
2024-05-09T04:46:04.580Z,57.08
2024-05-09T04:49:07.015Z,57.10
2024-05-09T04:52:09.421Z,57.10
2024-05-09T04:55:11.751Z,57.10
2024-05-09T04:58:14.352Z,57.08
2024-05-09T05:01:19.126Z,57.06
2024-05-09T05:04:21.751Z,57.02
2024-05-09T05:07:24.333Z,57.05
2024-05-09T05:10:33.975Z,57.09
2024-05-09T05:13:41.696Z,57.18
2024-05-09T05:16:44.525Z,57.26
2024-05-09T05:19:47.143Z,57.29
2024-05-09T05:22:49.646Z,57.38
2024-05-09T05:25:53.431Z,57.37
2024-05-09T05:28:56.286Z,57.42
2024-05-09T05:31:58.909Z,57.43
2024-05-09T05:35:01.510Z,57.40
2024-05-09T05:38:07.105Z,57.45
2024-05-09T05:41:10.374Z,57.45
2024-05-09T05:44:14.370Z,57.48
2024-05-09T05:47:16.970Z,57.48
2024-05-09T05:50:27.359Z,57.42
2024-05-09T05:53:35.481Z,57.34
2024-05-09T05:56:38.078Z,57.39
2024-05-09T05:59:40.934Z,57.22
2024-05-09T06:02:43.545Z,57.16
2024-05-09T06:05:46.592Z,57.15
2024-05-09T06:08:49.216Z,57.03
2024-05-09T06:11:52.162Z,57.04
2024-05-09T06:14:54.819Z,56.86
2024-05-09T06:17:57.237Z,56.95
2024-05-09T06:20:59.717Z,56.81
2024-05-09T06:24:06.539Z,56.77
2024-05-09T06:27:09.726Z,57.04
2024-05-09T06:30:24.862Z,56.93
2024-05-09T06:33:31.960Z,56.86
2024-05-09T06:36:34.506Z,56.92
2024-05-09T06:39:36.971Z,56.91
2024-05-09T06:42:39.288Z,56.89
2024-05-09T06:45:41.849Z,56.88
2024-05-09T06:48:44.612Z,56.94
2024-05-09T06:51:47.196Z,56.93
2024-05-09T06:54:49.633Z,56.87
2024-05-09T06:57:52.139Z,57.00
2024-05-09T07:00:54.469Z,57.00
2024-05-09T07:03:56.901Z,57.10
2024-05-09T07:06:59.238Z,57.07
2024-05-09T07:10:01.761Z,57.14
2024-05-09T07:13:11.064Z,57.35
2024-05-09T07:16:13.461Z,57.48
2024-05-09T07:19:16.152Z,57.45
2024-05-09T07:22:18.795Z,57.42
2024-05-09T07:25:21.214Z,57.34
2024-05-09T07:28:23.739Z,57.32
2024-05-09T07:31:28.169Z,57.42
2024-05-09T07:34:31.181Z,57.45
2024-05-09T07:37:33.578Z,57.46
2024-05-09T07:40:37.131Z,57.27
2024-05-09T07:43:39.694Z,57.25
2024-05-09T07:47:47.940Z,57.14
2024-05-09T07:53:37.288Z,57.08
2024-05-09T07:56:35.703Z,57.15
2024-05-09T07:59:39.021Z,57.15
2024-05-09T08:02:41.563Z,57.09
2024-05-09T08:05:44.142Z,56.96
2024-05-09T08:08:47.128Z,56.78
2024-05-09T08:11:52.861Z,56.71
2024-05-09T08:14:56.325Z,56.74
2024-05-09T08:17:59.474Z,56.65
2024-05-09T08:21:02.060Z,56.50
2024-05-09T08:24:04.679Z,56.35
2024-05-09T08:27:07.723Z,56.23
2024-05-09T08:30:18.604Z,56.10
2024-05-09T08:33:24.501Z,56.05
2024-05-09T08:36:29.499Z,55.98
2024-05-09T08:39:31.861Z,55.91
2024-05-09T08:42:36.315Z,55.87
2024-05-09T08:45:42.130Z,55.75
2024-05-09T08:48:48.038Z,55.68
2024-05-09T08:51:50.655Z,55.66
2024-05-09T08:54:54.852Z,55.58
2024-05-09T08:57:57.408Z,55.47
2024-05-09T09:01:00.325Z,55.53
2024-05-09T09:04:05.241Z,55.60
2024-05-09T09:07:07.786Z,55.58
2024-05-09T09:10:15.086Z,55.59
2024-05-09T09:13:20.401Z,55.56
2024-05-09T09:16:35.932Z,55.66
2024-05-09T09:19:40.258Z,55.72
2024-05-09T09:22:42.725Z,55.74
2024-05-09T09:25:45.239Z,55.81
2024-05-09T09:28:47.932Z,55.78
2024-05-09T09:32:04.179Z,55.79
2024-05-09T09:35:07.212Z,55.78
2024-05-09T09:38:11.158Z,55.76
2024-05-09T09:41:16.232Z,55.75
2024-05-09T09:44:19.906Z,55.75
2024-05-09T09:47:22.979Z,55.79
2024-05-09T09:50:33.749Z,55.82
2024-05-09T09:53:38.394Z,55.86
2024-05-09T09:56:41.539Z,55.88
2024-05-09T09:59:46.657Z,55.90
2024-05-09T10:02:49.117Z,55.86
2024-05-09T10:05:52.457Z,55.82
2024-05-09T10:08:55.111Z,55.80
2024-05-09T10:12:00.266Z,55.79
2024-05-09T10:15:09.689Z,55.77
2024-05-09T10:18:12.589Z,55.83
2024-05-09T10:21:18.497Z,55.83
2024-05-09T10:24:21.001Z,55.98
2024-05-09T10:27:30.707Z,56.01
2024-05-09T10:30:36.203Z,55.99
2024-05-09T10:33:45.570Z,55.89
2024-05-09T10:36:55.385Z,55.79
2024-05-09T10:39:58.859Z,55.78
2024-05-09T10:43:05.823Z,55.83
2024-05-09T10:46:10.177Z,55.82
2024-05-09T10:49:15.859Z,55.89
2024-05-09T10:52:22.194Z,55.87
2024-05-09T10:55:24.787Z,55.74
2024-05-09T10:58:28.411Z,55.66
2024-05-09T11:01:31.209Z,55.64
2024-05-09T11:04:34.484Z,55.58
2024-05-09T11:07:37.086Z,55.56
2024-05-09T11:10:39.999Z,55.55
2024-05-09T11:13:42.716Z,55.54
2024-05-09T11:16:45.174Z,55.58
2024-05-09T11:19:50.116Z,55.49
2024-05-09T11:22:52.728Z,55.43
2024-05-09T11:25:57.273Z,55.42
2024-05-09T11:28:59.862Z,55.39
2024-05-09T11:32:02.252Z,55.33
2024-05-09T11:35:04.956Z,55.34
2024-05-09T11:38:07.464Z,55.24
2024-05-09T11:41:16.360Z,55.23
2024-05-09T11:44:18.790Z,55.20
2024-05-09T11:47:21.660Z,55.18
2024-05-09T11:50:29.840Z,55.11
2024-05-09T11:53:35.611Z,53.93
2024-05-09T11:56:38.242Z,53.20
2024-05-09T11:59:40.739Z,52.41
2024-05-09T12:02:43.139Z,49.93
2024-05-09T12:05:45.838Z,48.87
2024-05-09T12:08:48.556Z,48.14
2024-05-09T12:11:50.989Z,48.50
2024-05-09T12:14:53.387Z,47.83
2024-05-09T12:17:58.173Z,47.76
2024-05-09T12:21:02.724Z,48.28
2024-05-09T12:24:05.221Z,50.02
2024-05-09T12:27:07.760Z,49.89
2024-05-09T12:30:14.186Z,48.44
2024-05-09T12:33:20.961Z,47.67
2024-05-09T12:36:23.466Z,47.31
2024-05-09T12:39:25.922Z,47.60
2024-05-09T12:42:29.891Z,46.43
2024-05-09T12:45:33.672Z,46.47
2024-05-09T12:48:36.518Z,45.82
2024-05-09T12:51:39.056Z,45.75
2024-05-09T12:54:41.465Z,45.73
2024-05-09T12:57:44.006Z,45.76
2024-05-09T13:00:47.397Z,44.77
2024-05-09T13:03:50.237Z,44.83
2024-05-09T13:06:53.096Z,45.35
2024-05-09T13:09:55.814Z,44.43
2024-05-09T13:12:58.214Z,45.03
2024-05-09T13:16:00.775Z,44.19
2024-05-09T13:19:03.173Z,44.81
2024-05-09T13:22:05.812Z,44.79
2024-05-09T13:25:08.344Z,44.76
2024-05-09T13:28:10.892Z,43.84
2024-05-09T13:31:13.500Z,43.69
2024-05-09T13:34:15.984Z,44.23
2024-05-09T13:37:18.877Z,43.03
2024-05-09T13:40:29.967Z,44.38
2024-05-09T13:43:36.536Z,44.04
2024-05-09T13:46:38.950Z,43.63
2024-05-09T13:49:41.360Z,44.31
2024-05-09T13:52:43.929Z,46.12
2024-05-09T13:55:46.631Z,46.15
2024-05-09T13:58:51.092Z,46.87
2024-05-09T14:01:53.576Z,44.87
2024-05-09T14:04:56.489Z,45.86
2024-05-09T14:07:59.291Z,46.09
2024-05-09T14:11:01.808Z,45.31
2024-05-09T14:14:04.296Z,44.70
2024-05-09T14:17:07.039Z,46.13
2024-05-09T14:20:13.977Z,44.83
2024-05-09T14:23:17.956Z,45.61
2024-05-09T14:26:20.501Z,44.15
2024-05-09T14:29:22.851Z,45.83
2024-05-09T14:32:25.310Z,47.07
2024-05-09T14:35:27.680Z,46.93
2024-05-09T14:38:30.368Z,44.98
2024-05-09T14:41:33.096Z,46.30
2024-05-09T14:44:35.533Z,46.80
2024-05-09T14:47:38.160Z,45.41
2024-05-09T14:50:41.201Z,45.62
2024-05-09T14:53:43.998Z,45.06
2024-05-09T14:56:46.512Z,46.40
2024-05-09T14:59:48.908Z,45.51
2024-05-09T15:02:51.306Z,46.63
2024-05-09T15:05:53.924Z,46.89
2024-05-09T15:08:57.409Z,46.14
2024-05-09T15:11:59.946Z,46.47
2024-05-09T15:15:02.335Z,46.56
2024-05-09T15:18:05.709Z,46.09
2024-05-09T15:21:08.439Z,46.26
2024-05-09T15:24:10.806Z,46.25
2024-05-09T15:27:13.536Z,46.73
2024-05-09T15:30:20.885Z,46.85
2024-05-09T15:33:27.992Z,45.31
2024-05-09T15:36:30.443Z,46.31
2024-05-09T15:39:32.960Z,46.51
2024-05-09T15:42:35.437Z,46.21
2024-05-09T15:45:37.910Z,46.47
2024-05-09T15:48:44.629Z,46.93
2024-05-09T15:51:48.481Z,46.92
2024-05-09T15:54:50.899Z,47.22
2024-05-09T15:57:53.453Z,47.12
2024-05-09T16:00:56.110Z,47.08
2024-05-09T16:03:58.804Z,46.92
2024-05-09T16:07:01.408Z,47.08
2024-05-09T16:10:06.540Z,47.20
2024-05-09T16:13:09.385Z,47.24
2024-05-09T16:16:12.072Z,46.68
2024-05-09T16:19:14.739Z,46.70
2024-05-09T16:22:17.526Z,46.57
2024-05-09T16:25:20.071Z,46.60
2024-05-09T16:28:24.704Z,46.63
2024-05-09T16:31:28.880Z,46.91
2024-05-09T16:34:31.566Z,46.95
2024-05-09T16:37:34.210Z,46.40
2024-05-09T16:40:40.161Z,47.03
2024-05-09T16:43:43.898Z,47.23
2024-05-09T16:46:46.400Z,47.42
2024-05-09T16:49:48.961Z,47.54
2024-05-09T16:52:51.375Z,47.55
2024-05-09T16:55:53.945Z,46.36
2024-05-09T16:58:56.477Z,46.39
2024-05-09T17:01:59.145Z,46.65
2024-05-09T17:05:01.955Z,46.77
2024-05-09T17:08:04.960Z,45.22
2024-05-09T17:11:07.581Z,45.84
2024-05-09T17:14:26.031Z,46.36
2024-05-09T17:17:30.269Z,45.24
2024-05-09T17:20:35.894Z,46.33
2024-05-09T17:23:40.178Z,46.72
2024-05-09T17:26:42.874Z,46.65
2024-05-09T17:29:45.470Z,46.54
2024-05-09T17:32:48.106Z,46.20
2024-05-09T17:35:51.344Z,45.86
2024-05-09T17:38:53.919Z,45.24
2024-05-09T17:41:56.425Z,44.18
2024-05-09T17:44:58.853Z,44.06
2024-05-09T17:48:03.803Z,44.03
2024-05-09T17:51:06.387Z,43.63
2024-05-09T17:54:08.650Z,45.07
2024-05-09T17:57:11.135Z,43.80
2024-05-09T18:00:17.452Z,44.48
2024-05-09T18:03:24.057Z,45.13
2024-05-09T18:06:26.586Z,45.16
2024-05-09T18:09:28.898Z,45.09
2024-05-09T18:12:31.741Z,45.85
2024-05-09T18:15:34.426Z,45.20
2024-05-09T18:18:37.162Z,45.59
2024-05-09T18:21:40.052Z,45.85
2024-05-09T18:24:42.575Z,45.22
2024-05-09T18:27:45.010Z,44.97
2024-05-09T18:30:47.584Z,44.95
2024-05-09T18:33:50.296Z,45.03
2024-05-09T18:36:52.988Z,44.90
2024-05-09T18:39:55.423Z,44.87
2024-05-09T18:42:57.876Z,44.80
2024-05-09T18:46:00.453Z,44.82
2024-05-09T18:49:02.921Z,44.74
2024-05-09T18:52:05.910Z,44.73
2024-05-09T18:55:08.487Z,44.58
2024-05-09T18:58:11.345Z,44.60
2024-05-09T19:01:13.844Z,43.95
2024-05-09T19:04:19.487Z,44.84
2024-05-09T19:07:22.211Z,44.55
2024-05-09T19:10:28.824Z,44.92
2024-05-09T19:13:35.874Z,44.90
2024-05-09T19:16:38.488Z,44.08
2024-05-09T19:19:40.899Z,44.33
2024-05-09T19:22:43.318Z,44.46
2024-05-09T19:25:45.965Z,44.77
2024-05-09T19:28:48.524Z,45.03
2024-05-09T19:31:51.081Z,44.50
2024-05-09T19:34:53.622Z,45.11
2024-05-09T19:37:56.164Z,45.03
2024-05-09T19:40:58.486Z,45.09
2024-05-09T19:44:00.878Z,45.51
2024-05-09T19:47:03.500Z,45.77
2024-05-09T19:50:11.040Z,46.05
2024-05-09T19:53:16.726Z,46.12
2024-05-09T19:56:19.291Z,46.38
2024-05-09T19:59:21.718Z,46.26
2024-05-09T20:02:24.332Z,46.44
2024-05-09T20:05:28.520Z,46.38
2024-05-09T20:08:31.108Z,46.35
2024-05-09T20:11:33.574Z,46.32
2024-05-09T20:14:36.022Z,46.33
2024-05-09T20:17:39.015Z,46.76
2024-05-09T20:20:43.768Z,46.43
2024-05-09T20:23:47.659Z,46.48
2024-05-09T20:26:49.991Z,46.61
2024-05-09T20:29:52.400Z,46.64
2024-05-09T20:32:55.221Z,46.90
2024-05-09T20:36:01.638Z,47.09
2024-05-09T20:39:04.697Z,47.08
2024-05-09T20:42:07.118Z,46.93
2024-05-09T20:45:09.486Z,46.98
2024-05-09T20:48:12.061Z,47.23
2024-05-09T20:51:14.558Z,47.54
2024-05-09T20:54:17.065Z,47.82
2024-05-09T20:57:19.544Z,48.06
2024-05-09T21:00:29.746Z,48.18
2024-05-09T21:03:38.422Z,48.39
2024-05-09T21:06:41.025Z,48.58
2024-05-09T21:09:43.650Z,48.75
2024-05-09T21:12:46.072Z,48.94
2024-05-09T21:15:48.643Z,49.03
2024-05-09T21:18:51.775Z,49.18
2024-05-09T21:21:54.288Z,49.31
2024-05-09T21:24:56.703Z,49.47
2024-05-09T21:27:59.261Z,49.60
2024-05-09T21:31:01.787Z,49.73
2024-05-09T21:34:04.379Z,49.89
2024-05-09T21:37:06.870Z,49.99
2024-05-09T21:40:13.847Z,50.13
2024-05-09T21:43:23.008Z,50.13
2024-05-09T21:46:25.688Z,50.33
2024-05-09T21:49:28.393Z,50.43
2024-05-09T21:52:31.161Z,50.59
2024-05-09T21:55:33.935Z,50.69
2024-05-09T21:58:36.349Z,50.80
2024-05-09T22:01:40.031Z,50.94
2024-05-09T22:04:42.458Z,51.00
2024-05-09T22:07:44.883Z,51.05
2024-05-09T22:10:47.303Z,51.11
2024-05-09T22:13:49.777Z,51.18
2024-05-09T22:16:52.637Z,51.25
2024-05-09T22:19:55.090Z,51.31
2024-05-09T22:22:57.460Z,51.37
2024-05-09T22:25:59.784Z,51.29
2024-05-09T22:29:02.159Z,51.38
2024-05-09T22:32:05.518Z,51.48
2024-05-09T22:35:10.564Z,51.50
2024-05-09T22:38:13.136Z,51.52
2024-05-09T22:41:15.625Z,51.54
2024-05-09T22:44:18.025Z,51.60
2024-05-09T22:47:20.474Z,51.62
2024-05-09T22:50:26.955Z,51.66
2024-05-09T22:53:33.301Z,51.71
2024-05-09T22:56:35.760Z,51.73
2024-05-09T22:59:38.178Z,51.75
2024-05-09T23:02:41.862Z,51.74
2024-05-09T23:05:44.452Z,51.77
2024-05-09T23:08:46.907Z,51.79
2024-05-09T23:11:49.310Z,51.77
2024-05-09T23:14:51.698Z,51.79
2024-05-09T23:17:54.263Z,51.81
2024-05-09T23:20:56.620Z,51.86
2024-05-09T23:23:58.929Z,51.86
2024-05-09T23:27:01.483Z,51.82
2024-05-09T23:30:06.081Z,51.91
2024-05-09T23:33:14.774Z,51.88
2024-05-09T23:36:17.406Z,51.87
2024-05-09T23:39:19.814Z,51.88
2024-05-09T23:42:22.143Z,51.92
2024-05-09T23:45:24.547Z,51.90
2024-05-09T23:48:26.933Z,51.99
2024-05-09T23:51:29.356Z,51.95
2024-05-09T23:54:31.783Z,51.98
2024-05-09T23:57:34.212Z,51.98
